Time;durP1;ratioP1;P1;durP2;ratioP2;P2;SDS_P1;SDS_P2;PMS_P1;PMS_P2;Temp;Humidity;BMP_temperature;BMP_pressure;BME280_temperature;BME280_humidity;BME280_pressure;Samples;Min_cycle;Max_cycle;Signal;HPM_P1;HPM_P2
2022/12/12 00:00:43;;;;;;;37.50;21.73;;;;;;;8.83;55.64;101188.50;5070941;28;20051;-71
2022/12/12 00:03:09;;;;;;;37.75;20.13;;;;;;;8.92;55.85;101183.78;5071362;28;20029;-70
2022/12/12 00:05:34;;;;;;;37.55;20.63;;;;;;;8.70;56.47;101188.50;5071422;28;20052;-70
2022/12/12 00:08:01;;;;;;;37.35;20.05;;;;;;;8.83;56.10;101190.34;5071675;28;20128;-70
2022/12/12 00:10:26;;;;;;;38.75;20.75;;;;;;;8.98;55.56;101182.97;5071345;28;20036;-69
2022/12/12 00:12:52;;;;;;;38.13;21.58;;;;;;;9.03;55.31;101185.84;5071825;28;20040;-70
2022/12/12 00:15:17;;;;;;;36.38;19.70;;;;;;;8.76;56.74;101185.00;5071431;28;20035;-68
2022/12/12 00:17:43;;;;;;;39.22;21.73;;;;;;;8.98;55.72;101182.13;5071455;28;20074;-68
2022/12/12 00:20:08;;;;;;;37.22;21.67;;;;;;;8.91;55.57;101189.31;5071291;28;20035;-69
2022/12/12 00:22:34;;;;;;;39.17;21.50;;;;;;;8.88;56.03;101187.06;5071768;28;20278;-70
2022/12/12 00:25:01;;;;;;;31.95;19.67;;;;;;;8.73;56.04;101184.56;5065222;28;20072;-69
2022/12/12 00:27:27;;;;;;;41.25;22.15;;;;;;;8.94;55.92;101186.25;5070240;28;20481;-70
2022/12/12 00:29:53;;;;;;;39.05;21.75;;;;;;;8.81;55.92;101184.38;5062737;28;20114;-70
2022/12/12 00:32:19;;;;;;;39.15;21.70;;;;;;;8.92;55.64;101191.00;5051249;28;20028;-69
2022/12/12 00:34:44;;;;;;;45.17;22.63;;;;;;;8.70;56.16;101182.31;5033219;28;20635;-71
2022/12/12 00:37:10;;;;;;;39.72;21.48;;;;;;;8.78;55.83;101187.47;5051752;28;20029;-70
2022/12/12 00:39:35;;;;;;;39.92;22.75;;;;;;;9.02;55.72;101194.88;5054653;28;20044;-70
2022/12/12 00:42:01;;;;;;;38.72;21.45;;;;;;;8.77;56.34;101193.84;5071298;28;20538;-69
2022/12/12 00:44:26;;;;;;;39.50;21.77;;;;;;;8.85;56.44;101196.34;5048420;28;20029;-70
2022/12/12 00:46:52;;;;;;;37.30;21.75;;;;;;;8.94;55.48;101187.09;5051290;28;20117;-69
2022/12/12 00:49:17;;;;;;;42.03;22.02;;;;;;;8.52;56.86;101198.16;5051781;28;20029;-69
2022/12/12 00:51:43;;;;;;;36.33;21.48;;;;;;;8.81;56.27;101193.25;5051434;28;20037;-70
2022/12/12 00:54:09;;;;;;;35.75;20.67;;;;;;;8.84;56.77;101189.34;5051343;28;20124;-68
2022/12/12 00:56:34;;;;;;;42.47;23.15;;;;;;;8.85;56.31;101199.00;5057965;28;20116;-70
2022/12/12 00:59:01;;;;;;;39.20;22.10;;;;;;;8.89;56.05;101194.91;5071228;28;20029;-69
2022/12/12 01:01:29;;;;;;;42.80;23.33;;;;;;;8.75;56.33;101201.28;5071431;28;20016;-71
2022/12/12 01:03:55;;;;;;;35.92;22.05;;;;;;;8.76;56.20;101194.91;5066899;28;20033;-69
2022/12/12 01:06:21;;;;;;;49.85;24.45;;;;;;;8.83;56.31;101201.06;5070707;28;20028;-72
2022/12/12 01:08:46;;;;;;;38.88;22.25;;;;;;;8.75;56.31;101207.47;5070951;28;20043;-72
2022/12/12 01:11:13;;;;;;;38.55;21.55;;;;;;;8.75;56.61;101210.13;5068994;28;20510;-73
2022/12/12 01:13:39;;;;;;;36.47;21.33;;;;;;;8.65;56.73;101215.06;5070980;28;20044;-74
2022/12/12 01:16:06;;;;;;;42.28;21.38;;;;;;;8.68;56.07;101205.81;5071418;28;20051;-73
2022/12/12 01:18:32;;;;;;;36.80;22.02;;;;;;;8.52;57.01;101212.38;5071725;28;20436;-72
2022/12/12 01:20:57;;;;;;;44.50;22.95;;;;;;;8.70;56.48;101212.63;5071700;28;20128;-73
2022/12/12 01:23:23;;;;;;;36.22;20.38;;;;;;;8.75;56.05;101207.47;5071589;28;20033;-73
2022/12/12 01:25:48;;;;;;;40.15;23.90;;;;;;;8.71;56.35;101224.13;5071050;28;20397;-74
2022/12/12 01:28:14;;;;;;;42.90;22.23;;;;;;;8.81;55.65;101224.56;5071972;28;20025;-73
2022/12/12 01:30:40;;;;;;;40.15;23.23;;;;;;;8.67;56.28;101226.41;5071152;28;20128;-73
2022/12/12 01:33:05;;;;;;;40.65;20.70;;;;;;;8.67;56.23;101222.91;5071938;28;20033;-74
2022/12/12 01:35:32;;;;;;;45.90;23.10;;;;;;;8.75;56.45;101236.94;5074718;28;20098;-74
2022/12/12 01:37:57;;;;;;;42.55;23.42;;;;;;;8.82;55.97;101224.34;5074982;28;20032;-72
2022/12/12 01:40:27;;;;;;;38.60;21.95;;;;;;;8.70;56.81;101230.53;5070521;28;20048;-73
2022/12/12 01:42:53;;;;;;;40.63;21.60;;;;;;;8.79;55.95;101229.31;5075125;28;20060;-73
2022/12/12 01:45:56;;;;;;;35.60;20.00;;;;;;;8.77;55.79;101242.09;5074534;28;20029;-73
2022/12/12 01:48:28;;;;;;;42.78;21.45;;;;;;;8.48;56.35;101237.91;5073234;28;20029;-72
2022/12/12 01:50:56;;;;;;;40.38;22.08;;;;;;;8.81;55.64;101243.31;5090149;28;20044;-73
2022/12/12 01:53:24;;;;;;;41.40;21.80;;;;;;;8.85;55.63;101237.38;5074681;28;20040;-72
2022/12/12 01:55:51;;;;;;;42.30;22.05;;;;;;;8.98;55.26;101241.94;5074662;28;20037;-72
2022/12/12 01:58:17;;;;;;;37.40;20.80;;;;;;;8.72;56.21;101245.38;5066044;28;20029;-72
2022/12/12 02:00:42;;;;;;;44.08;23.23;;;;;;;8.88;55.48;101244.97;5054099;28;20068;-72
2022/12/12 02:03:08;;;;;;;39.60;22.27;;;;;;;8.96;55.58;101243.16;5054677;28;20027;-72
2022/12/12 02:05:38;;;;;;;38.88;22.88;;;;;;;8.91;55.23;101238.41;5054440;28;20639;-73
2022/12/12 02:08:06;;;;;;;41.43;23.50;;;;;;;9.08;55.28;101245.00;5054214;28;20029;-71
2022/12/12 02:10:32;;;;;;;39.17;21.48;;;;;;;8.93;55.74;101240.88;5054201;28;20489;-72
2022/12/12 02:13:20;;;;;;;37.78;22.33;;;;;;;9.00;55.25;101247.91;5054747;28;20144;-73
2022/12/12 02:16:10;;;;;;;41.63;22.08;;;;;;;8.77;55.59;101236.72;5054410;28;20682;-71
2022/12/12 02:19:18;;;;;;;38.22;21.48;;;;;;;8.82;54.96;101234.28;5054401;28;20086;-72
2022/12/12 02:21:56;;;;;;;40.97;21.48;;;;;;;8.80;55.47;101234.44;4861815;29;20056;-73
2022/12/12 02:24:39;;;;;;;37.42;21.58;;;;;;;8.51;56.30;101236.69;4877672;29;20068;-72
2022/12/12 02:27:38;;;;;;;35.33;19.92;;;;;;;8.79;56.05;101234.66;4877594;29;20101;-73
2022/12/12 02:30:16;;;;;;;36.88;20.75;;;;;;;8.83;56.04;101235.91;4886649;29;20055;-71
2022/12/12 02:32:48;;;;;;;40.70;21.15;;;;;;;8.81;55.41;101228.09;4896158;29;20041;-72
2022/12/12 02:35:32;;;;;;;37.35;21.05;;;;;;;8.73;55.34;101230.94;4898072;29;20044;-72
2022/12/12 02:38:10;;;;;;;37.63;22.15;;;;;;;8.74;55.21;101231.78;4896165;29;20036;-72
2022/12/12 02:40:59;;;;;;;38.97;21.67;;;;;;;8.85;55.54;101228.50;4895909;29;20067;-72
2022/12/12 02:43:42;;;;;;;39.85;20.08;;;;;;;8.94;55.21;101219.25;4895828;29;20040;-72
2022/12/12 02:46:13;;;;;;;40.60;22.08;;;;;;;8.58;55.67;101234.84;4896266;29;20052;-72
2022/12/12 02:48:54;;;;;;;42.08;21.90;;;;;;;8.79;55.47;101237.34;4912017;29;20040;-71
2022/12/12 02:51:19;;;;;;;;;;;;;;;8.71;55.67;101235.69;4896290;29;20158;-71
2022/12/12 02:53:45;;;;;;;38.13;19.73;;;;;;;8.72;55.63;101231.16;4896064;29;19919;-72
2022/12/12 02:56:44;;;;;;;38.40;21.85;;;;;;;8.77;55.79;101240.22;4896277;29;20043;-72
2022/12/12 02:59:34;;;;;;;36.22;21.25;;;;;;;8.76;55.87;101230.56;5017469;28;20132;-72
2022/12/12 03:02:25;;;;;;;35.67;21.30;;;;;;;8.59;56.04;101236.47;5008929;28;20498;-73
2022/12/12 03:08:23;;;;;;;43.95;21.30;;;;;;;8.22;56.34;101237.78;5010986;28;20441;-73
2022/12/12 03:10:55;;;;;;;36.83;21.00;;;;;;;8.59;56.24;101234.63;5010744;28;20113;-72
2022/12/12 03:13:30;;;;;;;37.13;21.00;;;;;;;8.43;56.31;101236.88;5010757;28;20378;-72
2022/12/12 03:16:17;;;;;;;36.72;19.42;;;;;;;8.61;56.22;101240.59;5011414;28;20592;-73
2022/12/12 03:19:21;;;;;;;43.65;22.45;;;;;;;8.67;55.45;101234.44;5011036;28;20055;-72
2022/12/12 03:21:52;;;;;;;41.00;22.65;;;;;;;8.78;55.20;101238.38;4991230;28;20042;-72
2022/12/12 03:24:27;;;;;;;43.38;21.70;;;;;;;8.27;56.26;101240.72;4988679;28;20062;-72
2022/12/12 03:27:04;;;;;;;36.20;20.33;;;;;;;8.76;55.35;101240.44;4971864;28;20078;-73
2022/12/12 03:29:39;;;;;;;37.38;20.75;;;;;;;8.73;55.04;101240.84;4971920;28;20043;-72
2022/12/12 03:32:11;;;;;;;34.65;19.63;;;;;;;8.82;54.51;101245.00;4970723;28;20097;-73
2022/12/12 03:34:41;;;;;;;37.95;22.25;;;;;;;8.40;56.26;101240.75;4971587;28;20079;-73
2022/12/12 03:37:22;;;;;;;38.28;21.10;;;;;;;8.61;55.89;101240.59;4956144;28;20574;-72
2022/12/12 03:40:01;;;;;;;33.65;20.08;;;;;;;8.62;54.97;101246.81;4987028;28;20459;-72
2022/12/12 03:42:57;;;;;;;35.80;20.08;;;;;;;8.68;55.09;101251.34;4990630;28;20035;-72
2022/12/12 03:45:29;;;;;;;42.85;19.77;;;;;;;8.48;55.65;101248.63;4990420;28;20046;-72
2022/12/12 03:48:03;;;;;;;32.45;19.02;;;;;;;8.58;55.92;101235.66;4990783;28;20042;-71
2022/12/12 03:50:41;;;;;;;37.00;20.70;;;;;;;8.80;54.91;101241.69;4990981;28;20057;-71
2022/12/12 03:53:40;;;;;;;38.55;20.48;;;;;;;8.72;55.43;101244.56;4990997;28;20038;-73
2022/12/12 03:56:08;;;;;;;34.22;18.63;;;;;;;8.68;55.63;101249.50;4989998;28;20068;-72
2022/12/12 03:58:53;;;;;;;36.97;20.70;;;;;;;8.81;54.94;101246.00;5030780;28;20049;-73
2022/12/12 04:01:24;;;;;;;39.08;21.75;;;;;;;8.66;55.57;101251.56;5052254;28;20338;-73
2022/12/12 04:03:54;;;;;;;34.35;19.88;;;;;;;8.65;55.18;101251.75;5052925;28;20377;-73
2022/12/12 04:06:44;;;;;;;37.22;19.75;;;;;;;8.69;55.06;101253.81;5052565;28;20041;-72
2022/12/12 04:15:25;;;;;;;35.10;19.20;;;;;;;8.57;55.63;101252.75;5052239;28;20048;-72
2022/12/12 04:17:56;;;;;;;36.03;19.80;;;;;;;8.74;54.63;101253.22;5051997;28;20037;-73
2022/12/12 04:23:30;;;;;;;35.60;20.63;;;;;;;8.47;55.18;101260.34;5052152;28;20413;-71
2022/12/12 04:26:40;;;;;;;36.70;21.13;;;;;;;8.69;54.71;101264.53;5068052;28;20106;-72
2022/12/12 04:29:08;;;;;;;34.65;19.50;;;;;;;8.54;55.62;101263.88;5009386;28;20038;-73
2022/12/12 04:31:39;;;;;;;35.53;20.45;;;;;;;8.46;55.68;101260.56;5009635;28;20054;-72
2022/12/12 04:34:12;;;;;;;37.28;20.05;;;;;;;8.51;55.09;101271.50;5010393;28;20154;-71
2022/12/12 04:36:39;;;;;;;35.13;20.63;;;;;;;8.68;54.72;101265.56;5009821;28;20037;-73
2022/12/12 04:39:08;;;;;;;36.38;20.65;;;;;;;8.52;55.23;101270.47;4993315;28;20034;-73
2022/12/12 04:41:35;;;;;;;34.85;20.95;;;;;;;8.49;54.92;101273.56;4992979;28;20057;-71
2022/12/12 04:44:05;;;;;;;36.83;21.10;;;;;;;8.52;55.44;101265.94;5009278;28;20048;-71
2022/12/12 04:46:32;;;;;;;39.28;22.00;;;;;;;8.70;54.76;101266.19;5008946;28;20053;-71
2022/12/12 04:49:03;;;;;;;37.17;20.48;;;;;;;8.72;54.39;101271.34;5009550;28;20083;-71
2022/12/12 04:51:40;;;;;;;36.08;20.20;;;;;;;8.70;54.41;101271.56;5007846;28;20123;-71
2022/12/12 04:54:10;;;;;;;33.40;19.48;;;;;;;8.71;54.60;101267.84;5008910;28;20044;-72
2022/12/12 04:56:38;;;;;;;35.67;21.17;;;;;;;8.70;54.81;101276.09;5009266;28;20561;-71
2022/12/12 04:59:05;;;;;;;33.65;19.73;;;;;;;8.63;54.88;101276.06;5009765;28;20072;-73
2022/12/12 05:01:53;;;;;;;33.75;20.00;;;;;;;8.31;55.54;101281.31;5007318;28;20082;-71
2022/12/12 05:04:55;;;;;;;36.33;20.80;;;;;;;8.60;55.02;101276.47;5008141;28;20041;-71
2022/12/12 05:07:35;;;;;;;34.20;18.95;;;;;;;8.49;54.87;101278.91;4970155;28;20142;-70
2022/12/12 05:10:02;;;;;;;36.50;20.60;;;;;;;8.75;54.35;101282.47;4957837;28;20050;-72
2022/12/12 05:12:27;;;;;;;38.85;21.75;;;;;;;8.55;54.89;101280.78;4973463;28;20058;-72
2022/12/12 05:14:53;;;;;;;38.78;22.17;;;;;;;8.65;54.63;101281.19;4973422;28;20486;-71
2022/12/12 05:17:26;;;;;;;36.53;20.60;;;;;;;8.42;55.93;101286.91;4973933;28;20510;-71
2022/12/12 05:19:51;;;;;;;35.13;20.20;;;;;;;8.63;54.97;101285.94;4973948;28;20130;-71
2022/12/12 05:22:16;;;;;;;34.28;20.00;;;;;;;8.62;54.98;101281.63;4974250;28;20129;-72
2022/12/12 05:24:42;;;;;;;34.25;19.23;;;;;;;8.40;55.53;101286.28;4973175;28;20142;-72
2022/12/12 05:27:11;;;;;;;37.30;22.17;;;;;;;8.61;55.16;101271.91;4973963;28;20160;-72
2022/12/12 05:29:37;;;;;;;39.22;21.60;;;;;;;8.34;55.69;101289.75;4973621;28;20515;-71
2022/12/12 05:32:02;;;;;;;32.38;19.60;;;;;;;8.44;55.02;101286.69;4973528;28;20050;-72
2022/12/12 05:34:27;;;;;;;37.13;21.17;;;;;;;8.66;55.18;101281.03;4973871;28;20043;-71
2022/12/12 05:36:53;;;;;;;38.95;22.13;;;;;;;8.69;55.30;101283.28;4957775;28;20050;-71
2022/12/12 05:39:18;;;;;;;35.72;19.83;;;;;;;8.37;55.66;101277.84;4974088;28;20511;-72
2022/12/12 05:41:44;;;;;;;34.92;20.30;;;;;;;8.43;55.51;101277.03;4974775;28;20041;-73
2022/12/12 05:44:09;;;;;;;43.35;20.13;;;;;;;8.58;55.18;101283.88;5042028;28;20174;-71
2022/12/12 05:46:50;;;;;;;37.17;20.35;;;;;;;8.52;55.45;101282.00;5074338;28;20520;-73
2022/12/12 05:49:15;;;;;;;35.83;21.17;;;;;;;8.63;55.26;101272.53;5072442;28;20107;-74
2022/12/12 05:51:40;;;;;;;40.67;20.27;;;;;;;8.69;54.89;101282.44;5074214;28;20044;-71
2022/12/12 05:54:06;;;;;;;34.13;20.20;;;;;;;8.65;54.98;101283.88;5073601;28;20036;-72
2022/12/12 05:56:31;;;;;;;35.90;20.80;;;;;;;8.56;55.54;101291.28;5073339;28;20132;-73
2022/12/12 05:58:56;;;;;;;39.85;19.63;;;;;;;8.08;56.21;101294.94;5073446;28;20072;-72
2022/12/12 06:01:22;;;;;;;37.80;19.88;;;;;;;8.02;56.28;101295.72;5067447;28;20110;-73
2022/12/12 06:03:47;;;;;;;36.45;21.50;;;;;;;7.99;56.44;101291.63;5072141;28;20021;-73
2022/12/12 06:06:13;;;;;;;33.80;20.35;;;;;;;8.01;56.95;101291.41;5072978;28;20035;-71
2022/12/12 06:08:38;;;;;;;38.92;21.08;;;;;;;8.16;56.51;101291.28;5073389;28;20464;-71
2022/12/12 06:11:05;;;;;;;37.35;20.40;;;;;;;8.38;55.47;101288.34;5073312;28;20119;-73
2022/12/12 06:13:31;;;;;;;39.17;20.25;;;;;;;8.34;55.91;101283.56;5074733;28;20036;-70
2022/12/12 06:15:56;;;;;;;35.15;19.77;;;;;;;7.92;57.11;101285.38;5072035;28;20040;-72
2022/12/12 06:18:21;;;;;;;33.28;19.60;;;;;;;7.93;56.62;101292.41;5072006;28;20112;-71
2022/12/12 06:20:47;;;;;;;40.53;20.85;;;;;;;8.26;55.49;101287.25;5072545;28;20078;-72
2022/12/12 06:23:12;;;;;;;35.97;18.90;;;;;;;8.42;55.62;101286.91;5073672;28;20479;-72
2022/12/12 06:25:37;;;;;;;33.92;19.70;;;;;;;8.11;56.29;101291.88;5073269;28;20044;-72
2022/12/12 06:28:03;;;;;;;37.75;20.95;;;;;;;8.62;55.19;101297.69;5074643;28;20027;-72
2022/12/12 06:30:28;;;;;;;36.72;21.05;;;;;;;7.76;56.64;101306.28;5072952;28;20048;-71
2022/12/12 06:32:53;;;;;;;40.22;20.80;;;;;;;8.54;55.32;101298.72;5074026;28;20028;-70
2022/12/12 06:35:19;;;;;;;33.63;19.67;;;;;;;8.43;55.54;101298.47;5073867;28;20552;-71
2022/12/12 06:37:44;;;;;;;39.40;20.20;;;;;;;8.33;55.95;101295.31;5073653;28;20040;-71
2022/12/12 06:40:11;;;;;;;31.88;19.58;;;;;;;8.54;55.03;101295.19;5073531;28;20542;-72
2022/12/12 06:42:36;;;;;;;34.78;19.75;;;;;;;8.55;55.55;101286.16;5068254;28;20056;-72
2022/12/12 06:45:02;;;;;;;36.13;18.95;;;;;;;8.59;55.31;101292.72;5072781;28;20044;-72
2022/12/12 06:47:28;;;;;;;39.33;19.65;;;;;;;8.55;55.60;101300.34;5060679;28;20040;-72
2022/12/12 06:49:53;;;;;;;37.58;20.05;;;;;;;8.66;54.96;101305.13;5053327;28;20028;-72
2022/12/12 06:52:18;;;;;;;33.13;20.02;;;;;;;8.46;55.44;101314.13;5053579;28;20087;-71
2022/12/12 06:54:44;;;;;;;32.40;19.45;;;;;;;8.47;54.92;101321.13;5054011;28;20109;-71
2022/12/12 06:57:09;;;;;;;32.85;20.00;;;;;;;8.60;55.00;101319.34;5053433;28;20461;-71
2022/12/12 06:59:34;;;;;;;37.28;21.10;;;;;;;8.53;55.25;101317.66;5053241;28;20036;-72
2022/12/12 07:02:02;;;;;;;34.28;19.15;;;;;;;8.40;55.51;101309.56;5053689;28;20112;-70
2022/12/12 07:04:28;;;;;;;36.25;19.88;;;;;;;8.57;55.22;101308.19;5063909;28;20033;-70
2022/12/12 07:06:53;;;;;;;33.85;19.13;;;;;;;8.56;55.14;101317.25;5067338;28;20107;-71
2022/12/12 07:09:19;;;;;;;35.47;19.35;;;;;;;8.43;55.40;101309.16;5070791;28;20456;-71
2022/12/12 07:11:45;;;;;;;30.50;19.25;;;;;;;8.50;55.21;101318.03;5073350;28;20429;-72
2022/12/12 07:14:11;;;;;;;37.38;19.98;;;;;;;8.60;55.39;101310.47;5072540;28;20404;-71
2022/12/12 07:16:36;;;;;;;41.65;20.05;;;;;;;8.22;56.00;101317.25;5083313;28;20106;-72
2022/12/12 07:19:02;;;;;;;39.67;20.45;;;;;;;8.41;55.59;101320.06;5073112;28;20387;-71
2022/12/12 07:21:27;;;;;;;40.17;20.40;;;;;;;8.69;54.76;101314.59;5072376;28;20033;-71
2022/12/12 07:23:55;;;;;;;37.08;20.77;;;;;;;7.99;56.36;101323.75;5062338;28;20063;-72
2022/12/12 07:26:22;;;;;;;33.25;19.83;;;;;;;8.31;55.73;101330.34;5072109;28;20040;-73
2022/12/12 07:28:49;;;;;;;42.35;22.58;;;;;;;8.42;55.79;101324.41;5072414;28;20052;-72
2022/12/12 07:31:17;;;;;;;32.45;20.27;;;;;;;8.22;55.82;101328.78;5071605;28;20029;-72
2022/12/12 07:33:43;;;;;;;36.70;20.95;;;;;;;8.49;55.53;101332.47;5072365;28;20041;-70
2022/12/12 07:36:09;;;;;;;38.92;21.90;;;;;;;8.43;55.25;101325.25;5068294;28;20106;-72
2022/12/12 07:38:35;;;;;;;37.65;21.15;;;;;;;8.46;55.10;101330.19;5070819;28;20082;-72
2022/12/12 07:41:06;;;;;;;35.97;20.55;;;;;;;8.47;55.67;101334.53;5072242;28;20532;-72
2022/12/12 07:43:33;;;;;;;40.00;21.42;;;;;;;8.59;54.76;101331.06;5053494;28;20032;-73
2022/12/12 07:45:59;;;;;;;36.63;20.08;;;;;;;8.73;54.61;101326.56;5065125;28;20036;-74
2022/12/12 07:48:27;;;;;;;37.42;20.50;;;;;;;8.78;54.78;101324.13;5065646;28;20029;-73
2022/12/12 07:50:52;;;;;;;40.75;21.63;;;;;;;8.47;55.40;101335.34;5064375;28;20041;-72
2022/12/12 07:53:18;;;;;;;39.40;20.25;;;;;;;8.28;56.27;101337.91;5060881;28;20058;-74
2022/12/12 07:55:43;;;;;;;41.33;22.85;;;;;;;8.42;55.25;101340.47;5068923;28;20123;-73
2022/12/12 07:58:08;;;;;;;39.17;21.50;;;;;;;8.41;55.99;101343.34;5069329;28;20021;-72
2022/12/12 08:00:34;;;;;;;45.05;23.35;;;;;;;8.52;55.38;101351.66;5068052;28;20064;-72
2022/12/12 08:02:59;;;;;;;39.15;21.55;;;;;;;8.67;55.44;101348.81;5062014;28;20060;-73
2022/12/12 08:05:24;;;;;;;43.55;21.42;;;;;;;8.81;54.47;101350.50;5069937;28;20534;-73
2022/12/12 08:07:50;;;;;;;38.80;21.88;;;;;;;8.57;54.48;101353.72;5069465;28;20396;-72
2022/12/12 08:10:15;;;;;;;39.13;21.70;;;;;;;8.56;55.54;101352.06;5065714;28;20516;-73
2022/12/12 08:12:41;;;;;;;41.88;21.95;;;;;;;8.39;55.23;101359.59;5060840;28;20032;-73
2022/12/12 08:15:07;;;;;;;47.53;22.58;;;;;;;8.43;55.58;101360.84;5064072;28;20155;-73
2022/12/12 08:17:32;;;;;;;37.95;21.75;;;;;;;8.50;55.64;101363.56;5040223;28;20040;-73
2022/12/12 08:19:57;;;;;;;41.53;22.33;;;;;;;8.61;55.46;101360.31;5063384;28;20064;-73
2022/12/12 08:22:23;;;;;;;41.25;22.20;;;;;;;8.81;54.68;101367.41;5066970;28;20148;-72
2022/12/12 08:24:49;;;;;;;42.75;22.65;;;;;;;8.59;55.45;101362.38;5053243;28;20775;-72
2022/12/12 08:27:15;;;;;;;39.97;21.65;;;;;;;8.65;55.01;101365.09;5050360;28;20100;-74
2022/12/12 08:29:40;;;;;;;41.80;23.40;;;;;;;8.87;54.78;101357.75;5049335;28;20116;-73
2022/12/12 08:32:06;;;;;;;42.53;23.10;;;;;;;8.94;54.28;101363.97;5059908;28;20382;-73
2022/12/12 08:34:31;;;;;;;42.78;23.60;;;;;;;8.84;54.80;101366.19;5049753;28;20044;-72
2022/12/12 08:36:56;;;;;;;55.80;23.20;;;;;;;8.71;55.13;101376.84;5058982;28;20058;-72
2022/12/12 08:39:22;;;;;;;46.25;22.90;;;;;;;8.91;54.56;101372.41;5049818;28;20436;-73
2022/12/12 08:41:48;;;;;;;48.15;24.13;;;;;;;9.04;54.63;101372.44;5064299;28;20175;-75
2022/12/12 08:44:15;;;;;;;45.50;23.25;;;;;;;8.89;54.77;101369.09;5050681;28;20049;-73
2022/12/12 08:46:41;;;;;;;39.20;22.60;;;;;;;8.86;54.77;101366.81;5043113;28;20059;-73
2022/12/12 08:49:07;;;;;;;40.20;23.90;;;;;;;9.02;54.31;101362.97;5032245;28;20088;-72
2022/12/12 08:51:33;;;;;;;49.40;25.27;;;;;;;8.91;54.18;101363.53;5061612;28;20040;-72
2022/12/12 08:53:59;;;;;;;46.38;23.50;;;;;;;8.90;54.69;101369.94;5054972;28;20036;-72
2022/12/12 08:56:24;;;;;;;49.13;24.58;;;;;;;9.05;54.31;101367.91;5061259;28;20041;-72
2022/12/12 08:58:50;;;;;;;42.88;25.00;;;;;;;9.08;54.70;101365.63;5052728;28;20052;-72
2022/12/12 09:01:22;;;;;;;45.95;23.77;;;;;;;9.14;54.36;101367.50;5050350;28;20158;-73
2022/12/12 09:03:47;;;;;;;46.88;24.73;;;;;;;9.03;54.21;101362.75;5054941;28;20505;-74
2022/12/12 09:06:14;;;;;;;42.97;23.58;;;;;;;9.06;54.47;101356.16;5055203;28;20045;-72
2022/12/12 09:08:40;;;;;;;42.65;24.33;;;;;;;8.88;54.80;101359.41;5051735;28;20041;-72
2022/12/12 09:11:06;;;;;;;45.90;23.33;;;;;;;9.11;54.78;101369.78;5047837;28;20493;-71
2022/12/12 09:13:32;;;;;;;50.58;25.88;;;;;;;9.11;54.21;101364.41;5051639;28;20120;-71
2022/12/12 09:15:57;;;;;;;45.00;25.27;;;;;;;9.17;54.10;101379.69;5049902;28;20163;-74
2022/12/12 09:18:23;;;;;;;47.97;24.10;;;;;;;8.90;54.23;101372.59;5050258;28;20037;-72
2022/12/12 09:20:50;;;;;;;42.88;25.10;;;;;;;9.19;54.48;101369.59;5055557;28;20047;-72
2022/12/12 09:23:16;;;;;;;43.55;24.38;;;;;;;8.97;54.45;101371.59;5067840;28;20029;-74
2022/12/12 09:25:41;;;;;;;46.33;25.30;;;;;;;8.99;54.74;101374.91;5071722;28;20500;-72
2022/12/12 09:28:07;;;;;;;45.13;24.50;;;;;;;9.18;53.87;101384.03;5087715;28;20103;-73
2022/12/12 09:30:33;;;;;;;47.20;23.95;;;;;;;9.04;54.44;101377.00;5051674;28;20032;-72
2022/12/12 09:32:58;;;;;;;43.88;24.70;;;;;;;9.25;53.98;101382.19;5059671;28;20033;-73
2022/12/12 09:35:23;;;;;;;45.25;24.58;;;;;;;9.19;54.30;101383.84;5064383;28;20064;-73
2022/12/12 09:37:49;;;;;;;43.40;25.30;;;;;;;9.40;53.85;101385.50;5075950;28;20372;-72
2022/12/12 09:40:22;;;;;;;47.13;25.08;;;;;;;9.37;53.78;101384.09;5076047;28;20036;-73
2022/12/12 09:42:50;;;;;;;50.38;25.20;;;;;;;9.23;54.10;101378.88;5061642;28;20078;-73
2022/12/12 09:45:18;;;;;;;54.17;25.85;;;;;;;9.45;53.83;101375.00;5080798;28;20130;-73
2022/12/12 09:48:03;;;;;;;48.80;25.27;;;;;;;9.15;53.49;101371.03;5066316;28;20394;-73
2022/12/12 09:50:33;;;;;;;44.50;24.83;;;;;;;9.02;54.44;101371.00;5073090;28;20106;-73
2022/12/12 09:53:11;;;;;;;42.37;24.60;;;;;;;9.23;53.88;101379.72;5076675;28;20028;-73
2022/12/12 09:55:54;;;;;;;44.03;24.92;;;;;;;9.18;53.97;101373.31;5074854;28;20986;-74
2022/12/12 09:58:38;;;;;;;49.05;25.83;;;;;;;9.23;54.53;101374.34;5067632;28;20536;-73
2022/12/12 10:01:31;;;;;;;45.92;24.10;;;;;;;9.53;53.28;101375.63;5076792;28;20037;-75
2022/12/12 10:04:28;;;;;;;47.35;25.00;;;;;;;9.46;53.33;101382.84;5078535;28;20049;-74
2022/12/12 10:07:09;;;;;;;48.58;25.17;;;;;;;9.32;53.94;101385.69;5074091;28;20044;-73
2022/12/12 10:09:40;;;;;;;44.90;25.35;;;;;;;9.47;54.24;101381.78;5082422;28;20063;-73
2022/12/12 10:12:10;;;;;;;46.90;25.13;;;;;;;9.72;53.43;101379.34;5067489;28;20389;-75
2022/12/12 10:14:52;;;;;;;54.88;26.38;;;;;;;9.41;53.52;101388.00;5075106;28;20062;-75
2022/12/12 10:17:41;;;;;;;53.28;28.25;;;;;;;9.05;54.84;101392.84;5081046;28;20028;-75
2022/12/12 10:20:16;;;;;;;58.80;27.55;;;;;;;9.42;53.28;101386.97;5075118;28;20448;-73
2022/12/12 10:22:47;;;;;;;43.47;25.63;;;;;;;9.53;53.84;101389.03;5093224;28;20111;-74
2022/12/12 10:25:24;;;;;;;58.22;27.63;;;;;;;9.34;53.27;101383.63;5089039;28;20056;-73
2022/12/12 10:28:11;;;;;;;43.20;25.95;;;;;;;9.61;53.51;101382.66;5090348;28;20054;-75
2022/12/12 10:30:51;;;;;;;49.17;24.73;;;;;;;9.88;53.20;101370.88;5060240;28;20033;-74
2022/12/12 10:33:57;;;;;;;48.45;27.40;;;;;;;9.45;52.43;101370.44;5066235;28;20033;-75
2022/12/12 10:36:37;;;;;;;48.88;26.33;;;;;;;9.10;54.17;101379.66;5001592;28;20399;-74
2022/12/12 10:39:19;;;;;;;40.38;24.95;;;;;;;9.69;52.78;101375.22;5017006;28;20041;-73
2022/12/12 10:42:08;;;;;;;41.78;23.98;;;;;;;9.64;52.73;101380.38;5013854;28;20045;-73
2022/12/12 10:44:51;;;;;;;45.67;25.05;;;;;;;9.80;53.11;101376.47;5019377;28;20054;-74
2022/12/12 10:47:17;;;;;;;44.08;24.52;;;;;;;9.26;54.44;101375.78;5024783;28;20041;-75
2022/12/12 10:49:43;;;;;;;38.50;23.83;;;;;;;9.12;54.74;101376.81;5024860;28;20105;-75
2022/12/12 10:52:20;;;;;;;50.25;26.13;;;;;;;9.57;54.04;101368.00;5028591;28;20107;-75
2022/12/12 10:54:54;;;;;;;39.10;22.98;;;;;;;9.83;53.18;101373.34;5018454;28;20060;-73
2022/12/12 10:57:28;;;;;;;41.42;22.92;;;;;;;9.67;53.32;101365.72;5017765;28;20065;-74
2022/12/12 10:59:56;;;;;;;40.58;23.20;;;;;;;9.83;52.77;101359.13;5016992;28;20057;-70
2022/12/12 11:02:36;;;;;;;37.85;21.45;;;;;;;9.31;53.34;101362.59;5019257;28;20092;-73
2022/12/12 11:05:04;;;;;;;47.25;22.80;;;;;;;9.32;52.87;101362.41;5020005;28;20034;-74
2022/12/12 11:07:35;;;;;;;42.83;22.50;;;;;;;9.37;53.27;101359.09;5020578;28;20029;-73
2022/12/12 11:10:00;;;;;;;38.08;20.40;;;;;;;9.41;53.31;101355.81;5018684;28;20042;-74
2022/12/12 11:12:36;;;;;;;42.90;24.10;;;;;;;9.53;52.77;101354.16;5050381;28;20577;-73
2022/12/12 11:15:14;;;;;;;39.83;22.80;;;;;;;9.28;53.67;101354.94;5055355;28;20567;-75
2022/12/12 11:17:39;;;;;;;40.20;21.65;;;;;;;9.05;53.54;101349.97;5061960;28;20500;-74
2022/12/12 11:20:08;;;;;;;44.97;23.80;;;;;;;9.26;53.65;101355.16;5058662;28;20112;-73
2022/12/12 11:22:37;;;;;;;36.88;21.42;;;;;;;9.11;53.99;101351.84;5058831;28;20021;-72
2022/12/12 11:25:04;;;;;;;43.92;22.52;;;;;;;8.67;54.72;101359.53;5065461;28;20048;-73
2022/12/12 11:27:31;;;;;;;46.10;22.88;;;;;;;9.02;53.87;101349.56;5059992;28;20047;-72
2022/12/12 11:30:22;;;;;;;48.65;25.77;;;;;;;8.81;53.96;101353.19;5062739;28;20156;-72
2022/12/12 11:32:52;;;;;;;46.15;23.65;;;;;;;8.82;53.88;101347.63;5064448;28;20045;-72
2022/12/12 11:35:38;;;;;;;36.35;20.50;;;;;;;9.16;53.33;101344.00;5062440;28;20819;-74
2022/12/12 11:38:16;;;;;;;45.15;21.85;;;;;;;9.40;52.18;101335.38;5058477;28;20118;-73
2022/12/12 11:40:43;;;;;;;46.80;22.65;;;;;;;9.07;53.30;101336.34;5057702;28;20112;-73
2022/12/12 11:43:27;;;;;;;48.00;23.08;;;;;;;8.56;54.13;101342.19;5065057;28;20017;-73
2022/12/12 11:46:13;;;;;;;45.45;22.35;;;;;;;8.51;54.36;101346.50;5070404;28;20045;-74